臺北飛航情報區 - 掃描席(區管/近場)

METAR RCTP 290600Z 24014KT 9999 FEW015 FEW020CB BKN200 34/27 Q0999 NOSIG RMK CB E-SE A2950(P)=

站台狀態:Online
最後更新:2021-07-29 14:00:01